createdAt,value
2023-05-05T00:00:08.182Z,2.43
2023-05-05T00:02:34.694Z,2.41
2023-05-05T00:05:02.196Z,3.02
2023-05-05T00:07:28.502Z,2.64
2023-05-05T00:09:54.820Z,2.76
2023-05-05T00:12:21.121Z,2.69
2023-05-05T00:14:47.419Z,2.50
2023-05-05T00:17:13.816Z,2.61
2023-05-05T00:19:40.155Z,2.49
2023-05-05T00:22:06.456Z,2.87
2023-05-05T00:24:32.789Z,2.80
2023-05-05T00:26:59.091Z,2.90
2023-05-05T00:29:25.397Z,2.67
2023-05-05T00:31:51.729Z,2.64
2023-05-05T00:34:18.072Z,2.75
2023-05-05T00:36:44.359Z,2.60
2023-05-05T00:39:10.670Z,2.49
2023-05-05T00:41:36.970Z,2.69
2023-05-05T00:44:03.280Z,2.66
2023-05-05T00:46:29.711Z,2.69
2023-05-05T00:48:56.144Z,2.72
2023-05-05T00:51:22.497Z,2.84
2023-05-05T00:53:48.861Z,2.95
2023-05-05T00:56:15.154Z,2.75
2023-05-05T00:58:41.459Z,2.75
2023-05-05T01:01:07.833Z,2.91
2023-05-05T01:03:34.320Z,2.92
2023-05-05T01:06:00.720Z,2.91
2023-05-05T01:08:28.322Z,2.65
2023-05-05T01:10:54.651Z,2.70
2023-05-05T01:13:20.945Z,2.57
2023-05-05T01:15:47.274Z,2.54
2023-05-05T01:18:13.571Z,2.83
2023-05-05T01:20:39.875Z,2.81
2023-05-05T01:23:06.208Z,2.81
2023-05-05T01:25:32.512Z,2.72
2023-05-05T01:27:58.817Z,2.88
2023-05-05T01:30:25.130Z,2.74
2023-05-05T01:32:51.491Z,3.00
2023-05-05T01:35:18.001Z,2.91
2023-05-05T01:37:44.311Z,2.87
2023-05-05T01:40:10.611Z,2.96
2023-05-05T01:42:36.919Z,3.23
2023-05-05T01:45:03.253Z,2.86
2023-05-05T01:47:29.574Z,3.13
2023-05-05T01:49:55.902Z,2.87
2023-05-05T01:52:22.221Z,2.82
2023-05-05T01:54:48.515Z,2.91
2023-05-05T01:57:14.816Z,3.20
2023-05-05T01:59:41.161Z,3.04
2023-05-05T02:02:07.506Z,2.99
2023-05-05T02:04:33.899Z,3.26
2023-05-05T02:07:00.332Z,3.06
2023-05-05T02:09:26.622Z,2.95
2023-05-05T02:11:52.927Z,2.95
2023-05-05T02:14:19.284Z,2.88
2023-05-05T02:16:45.583Z,3.05
2023-05-05T02:19:11.883Z,3.20
2023-05-05T02:21:38.203Z,3.14
2023-05-05T02:24:04.757Z,3.19
2023-05-05T02:26:31.055Z,3.04
2023-05-05T02:28:57.374Z,2.86
2023-05-05T02:31:23.727Z,2.99
2023-05-05T02:33:50.065Z,2.83
2023-05-05T02:36:16.377Z,2.80
2023-05-05T02:38:42.686Z,2.84
2023-05-05T02:41:08.983Z,2.87
2023-05-05T02:43:35.304Z,3.00
2023-05-05T02:46:01.689Z,3.00
2023-05-05T02:48:28.018Z,3.16
2023-05-05T02:50:54.344Z,3.05
2023-05-05T02:53:20.649Z,3.16
2023-05-05T02:55:46.965Z,3.10
2023-05-05T02:58:13.308Z,3.06
2023-05-05T03:00:39.609Z,2.89
2023-05-05T03:03:06.036Z,3.15
2023-05-05T03:05:32.440Z,3.20
2023-05-05T03:07:58.736Z,3.25
2023-05-05T03:10:25.031Z,3.20
2023-05-05T03:12:51.413Z,3.31
2023-05-05T03:15:17.781Z,3.44
2023-05-05T03:17:44.150Z,3.16
2023-05-05T03:20:10.522Z,3.18
2023-05-05T03:22:36.818Z,3.06
2023-05-05T03:25:03.113Z,3.07
2023-05-05T03:27:29.446Z,2.72
2023-05-05T03:29:55.865Z,2.89
2023-05-05T03:32:22.174Z,2.84
2023-05-05T03:34:48.472Z,3.05
2023-05-05T03:37:14.763Z,2.77
2023-05-05T03:39:41.084Z,3.00
2023-05-05T03:42:07.418Z,2.87
2023-05-05T03:44:33.731Z,2.83
2023-05-05T03:47:00.040Z,2.89
2023-05-05T03:49:26.370Z,3.14
2023-05-05T03:51:52.669Z,3.26
2023-05-05T03:54:18.971Z,3.17
2023-05-05T03:56:48.063Z,2.78
2023-05-05T03:59:14.347Z,3.11
2023-05-05T04:01:40.641Z,3.13
2023-05-05T04:04:07.015Z,3.28
2023-05-05T04:06:33.351Z,3.62
2023-05-05T04:08:59.668Z,3.50
2023-05-05T04:11:26.028Z,3.27
2023-05-05T04:13:52.348Z,3.12
2023-05-05T04:16:18.749Z,3.23
2023-05-05T04:18:45.123Z,3.19
2023-05-05T04:21:11.420Z,3.09
2023-05-05T04:23:37.727Z,2.97
2023-05-05T04:26:04.046Z,3.06
2023-05-05T04:28:33.302Z,3.13
2023-05-05T04:30:59.607Z,3.85
2023-05-05T04:33:26.002Z,3.60
2023-05-05T04:35:52.321Z,3.07
2023-05-05T04:38:18.744Z,2.94
2023-05-05T04:40:45.109Z,3.04
2023-05-05T04:43:11.427Z,3.21
2023-05-05T04:45:37.728Z,3.46
2023-05-05T04:48:04.091Z,3.26
2023-05-05T04:50:30.441Z,3.16
2023-05-05T04:52:56.737Z,3.19
2023-05-05T04:55:23.050Z,3.55
2023-05-05T04:57:49.355Z,3.42
2023-05-05T05:00:15.657Z,3.25
2023-05-05T05:02:42.023Z,3.45
2023-05-05T05:05:08.393Z,3.37
2023-05-05T05:07:34.718Z,3.46
2023-05-05T05:10:01.057Z,3.10
2023-05-05T05:12:27.372Z,3.27
2023-05-05T05:14:53.695Z,3.69
2023-05-05T05:17:20.551Z,4.29
2023-05-05T05:19:46.838Z,4.40
2023-05-05T05:22:13.140Z,4.55
2023-05-05T05:24:39.462Z,4.21
2023-05-05T05:27:06.814Z,4.00
2023-05-05T05:29:34.886Z,4.32
2023-05-05T05:32:01.235Z,4.02
2023-05-05T05:34:27.558Z,3.91
2023-05-05T05:36:53.856Z,3.96
2023-05-05T05:39:20.184Z,4.59
2023-05-05T05:41:46.502Z,4.92
2023-05-05T05:44:12.803Z,5.65
2023-05-05T05:46:39.174Z,7.17
2023-05-05T05:49:05.835Z,7.13
2023-05-05T05:51:32.144Z,6.28
2023-05-05T05:53:58.983Z,4.91
2023-05-05T05:56:25.388Z,4.60
2023-05-05T05:58:51.697Z,4.36
2023-05-05T06:01:18.033Z,4.27
2023-05-05T06:03:44.398Z,4.40
2023-05-05T06:06:10.758Z,4.19
2023-05-05T06:08:37.106Z,4.50
2023-05-05T06:11:04.535Z,4.18
2023-05-05T06:13:30.851Z,4.21
2023-05-05T06:15:57.182Z,4.03
2023-05-05T06:18:23.714Z,4.15
2023-05-05T06:20:50.070Z,4.33
2023-05-05T06:23:16.452Z,4.53
2023-05-05T06:25:42.767Z,5.12
2023-05-05T06:28:09.074Z,5.04
2023-05-05T06:30:35.417Z,4.79
2023-05-05T06:33:01.809Z,4.69
2023-05-05T06:35:28.183Z,5.14
2023-05-05T06:37:54.587Z,5.22
2023-05-05T06:40:21.002Z,5.46
2023-05-05T06:42:47.333Z,5.25
2023-05-05T06:45:13.841Z,4.67
2023-05-05T06:47:40.166Z,4.18
2023-05-05T06:50:06.993Z,4.16
2023-05-05T06:52:33.553Z,4.41
2023-05-05T06:54:59.851Z,4.67
2023-05-05T06:57:26.162Z,4.56
2023-05-05T06:59:52.487Z,4.09
2023-05-05T07:02:18.800Z,4.65
2023-05-05T07:04:45.092Z,4.60
2023-05-05T07:07:11.401Z,4.53
2023-05-05T07:09:37.689Z,4.55
2023-05-05T07:12:03.989Z,4.05
2023-05-05T07:14:30.301Z,4.44
2023-05-05T07:16:56.704Z,4.59
2023-05-05T07:19:23.109Z,4.59
2023-05-05T07:21:49.429Z,4.34
2023-05-05T07:24:15.897Z,4.51
2023-05-05T07:26:42.210Z,4.64
2023-05-05T07:29:08.562Z,4.60
2023-05-05T07:31:34.883Z,4.55
2023-05-05T07:34:01.368Z,4.54
2023-05-05T07:36:27.723Z,4.66
2023-05-05T07:38:54.138Z,4.54
2023-05-05T07:41:20.453Z,4.89
2023-05-05T07:43:46.778Z,4.67
2023-05-05T07:46:13.121Z,4.61
2023-05-05T07:48:39.450Z,4.86
2023-05-05T07:51:05.779Z,4.99
2023-05-05T07:53:32.085Z,5.01
2023-05-05T07:55:58.390Z,5.12
2023-05-05T07:58:24.711Z,5.04
2023-05-05T08:00:51.016Z,5.32
2023-05-05T08:03:17.334Z,5.19
2023-05-05T08:05:43.689Z,5.12
2023-05-05T08:08:10.009Z,5.31
2023-05-05T08:10:36.333Z,5.14
2023-05-05T08:13:02.702Z,5.05
2023-05-05T08:15:29.006Z,5.32
2023-05-05T08:17:55.480Z,5.27
2023-05-05T08:20:21.880Z,5.39
2023-05-05T08:22:48.191Z,5.38
2023-05-05T08:25:14.497Z,5.64
2023-05-05T08:27:40.835Z,5.49
2023-05-05T08:30:07.140Z,5.20
2023-05-05T08:32:33.498Z,4.93
2023-05-05T08:34:59.881Z,5.47
2023-05-05T08:37:26.184Z,5.28
2023-05-05T08:39:52.482Z,5.38
2023-05-05T08:42:32.812Z,5.07
2023-05-05T08:45:03.084Z,5.11
2023-05-05T08:47:29.442Z,5.12
2023-05-05T08:49:55.778Z,5.13
2023-05-05T08:52:22.102Z,5.27
2023-05-05T08:54:48.437Z,5.24
2023-05-05T08:57:14.746Z,5.19
2023-05-05T08:59:41.061Z,4.87
2023-05-05T09:02:07.425Z,4.98
2023-05-05T09:04:33.800Z,4.78
2023-05-05T09:07:00.172Z,5.00
2023-05-05T09:09:26.491Z,4.68
2023-05-05T09:11:52.796Z,4.02
2023-05-05T09:14:19.109Z,4.42
2023-05-05T09:16:45.459Z,4.60
2023-05-05T09:19:11.791Z,4.55
2023-05-05T09:21:38.116Z,4.14
2023-05-05T09:24:08.123Z,4.07
2023-05-05T09:26:35.309Z,3.92
2023-05-05T09:29:01.612Z,3.75
2023-05-05T09:31:28.033Z,3.59
2023-05-05T09:33:54.422Z,3.81
2023-05-05T09:36:20.718Z,3.61
2023-05-05T09:38:47.085Z,3.56
2023-05-05T09:41:13.384Z,3.66
2023-05-05T09:43:39.691Z,3.69
2023-05-05T09:46:08.903Z,3.50
2023-05-05T09:48:35.282Z,4.25
2023-05-05T09:51:01.629Z,3.93
2023-05-05T09:53:27.953Z,4.37
2023-05-05T09:55:54.275Z,4.76
2023-05-05T09:58:20.670Z,4.36
2023-05-05T10:00:48.245Z,3.94
2023-05-05T10:03:14.537Z,3.69
2023-05-05T10:05:40.844Z,4.23
2023-05-05T10:08:07.167Z,3.85
2023-05-05T10:10:33.459Z,3.86
2023-05-05T10:12:59.791Z,3.91
2023-05-05T10:15:26.144Z,3.87
2023-05-05T10:18:06.047Z,3.84
2023-05-05T10:20:34.247Z,3.92
2023-05-05T10:23:00.571Z,3.45
2023-05-05T10:25:26.900Z,3.65
2023-05-05T10:27:53.214Z,3.86
2023-05-05T10:30:19.537Z,3.62
2023-05-05T10:33:00.461Z,4.06
2023-05-05T10:35:32.118Z,5.03
2023-05-05T10:37:58.404Z,5.21
2023-05-05T10:40:24.722Z,5.19
2023-05-05T10:42:51.179Z,4.96
2023-05-05T10:45:17.502Z,4.32
2023-05-05T10:47:44.032Z,4.50
2023-05-05T10:50:10.647Z,4.00
2023-05-05T10:52:37.072Z,4.26
2023-05-05T10:55:03.371Z,4.36
2023-05-05T10:57:30.513Z,4.07
2023-05-05T10:59:56.943Z,3.51
2023-05-05T11:02:23.368Z,3.22
2023-05-05T11:04:49.755Z,3.34
2023-05-05T11:07:16.133Z,3.53
2023-05-05T11:09:42.404Z,3.06
2023-05-05T11:12:08.706Z,3.27
2023-05-05T11:14:34.991Z,3.26
2023-05-05T11:17:01.380Z,3.47
2023-05-05T11:19:27.718Z,3.26
2023-05-05T11:21:54.013Z,3.14
2023-05-05T11:24:20.299Z,2.97
2023-05-05T11:26:46.606Z,3.10
2023-05-05T11:29:12.894Z,3.80
2023-05-05T11:31:39.295Z,3.07
2023-05-05T11:34:05.692Z,2.87
2023-05-05T11:36:32.003Z,2.73
2023-05-05T11:38:58.307Z,2.75
2023-05-05T11:41:24.625Z,2.83
2023-05-05T11:43:50.941Z,2.53
2023-05-05T11:46:17.297Z,2.63
2023-05-05T11:48:43.689Z,2.68
2023-05-05T11:51:09.991Z,2.46
2023-05-05T11:53:36.300Z,2.35
2023-05-05T11:56:02.634Z,2.71
2023-05-05T11:58:28.925Z,2.56
2023-05-05T12:00:55.239Z,2.40
2023-05-05T12:03:21.718Z,2.60
2023-05-05T12:05:48.098Z,2.73
2023-05-05T12:08:14.392Z,2.53
2023-05-05T12:10:40.734Z,2.31
2023-05-05T12:13:07.057Z,2.57
2023-05-05T12:15:33.373Z,2.64
2023-05-05T12:18:02.451Z,2.77
2023-05-05T12:20:29.470Z,2.89
2023-05-05T12:22:55.763Z,3.41
2023-05-05T12:25:22.111Z,3.29
2023-05-05T12:27:48.402Z,2.53
2023-05-05T12:30:14.735Z,2.55
2023-05-05T12:32:41.106Z,2.52
2023-05-05T12:35:07.442Z,2.57
2023-05-05T12:37:33.752Z,2.35
2023-05-05T12:40:00.129Z,2.23
2023-05-05T12:42:26.461Z,2.57
2023-05-05T12:44:52.766Z,2.31
2023-05-05T12:47:19.083Z,2.36
2023-05-05T12:49:45.406Z,2.13
2023-05-05T12:52:11.718Z,2.34
2023-05-05T12:54:38.105Z,2.11
2023-05-05T12:57:04.397Z,2.28
2023-05-05T12:59:30.713Z,2.56
2023-05-05T13:01:57.164Z,2.27
2023-05-05T13:04:23.574Z,2.31
2023-05-05T13:06:49.929Z,2.30
2023-05-05T13:09:16.265Z,2.40
2023-05-05T13:11:42.567Z,2.65
2023-05-05T13:14:08.882Z,2.72
2023-05-05T13:16:35.187Z,3.00
2023-05-05T13:19:01.480Z,3.55
2023-05-05T13:21:27.780Z,4.26
2023-05-05T13:23:55.965Z,4.06
2023-05-05T13:26:27.811Z,4.63
2023-05-05T13:28:54.125Z,3.68
2023-05-05T13:31:20.434Z,3.23
2023-05-05T13:33:46.764Z,3.13
2023-05-05T13:36:13.081Z,3.41
2023-05-05T13:38:39.432Z,3.29
2023-05-05T13:41:05.737Z,3.34
2023-05-05T13:43:32.049Z,3.50
2023-05-05T13:46:08.696Z,3.50
2023-05-05T13:48:38.767Z,3.42
2023-05-05T13:51:05.167Z,3.26
2023-05-05T13:53:31.484Z,3.67
2023-05-05T13:55:57.974Z,3.17
2023-05-05T13:58:24.274Z,3.76
2023-05-05T14:00:50.628Z,3.66
2023-05-05T14:03:17.001Z,3.82
2023-05-05T14:05:43.305Z,3.77
2023-05-05T14:08:09.615Z,3.83
2023-05-05T14:10:35.935Z,3.98
2023-05-05T14:13:02.287Z,3.94
2023-05-05T14:15:28.626Z,3.82
2023-05-05T14:17:54.980Z,3.53
2023-05-05T14:20:21.299Z,3.75
2023-05-05T14:22:49.301Z,3.62
2023-05-05T14:25:15.793Z,3.65
2023-05-05T14:27:42.074Z,3.29
2023-05-05T14:30:08.370Z,3.25
2023-05-05T14:32:34.813Z,3.45
2023-05-05T14:35:01.105Z,3.39
2023-05-05T14:37:27.402Z,3.30
2023-05-05T14:39:53.733Z,3.22
2023-05-05T14:42:20.046Z,3.00
2023-05-05T14:44:46.334Z,3.15
2023-05-05T14:47:12.653Z,3.26
2023-05-05T14:49:38.948Z,3.19
2023-05-05T14:52:05.248Z,3.24
2023-05-05T14:54:31.678Z,3.45
2023-05-05T14:56:58.016Z,3.25
2023-05-05T14:59:24.323Z,3.28
2023-05-05T15:01:50.709Z,3.18
2023-05-05T15:04:17.030Z,3.37
2023-05-05T15:06:43.323Z,3.67
2023-05-05T15:09:09.670Z,3.78
2023-05-05T15:11:35.973Z,3.29
2023-05-05T15:14:02.338Z,3.24
2023-05-05T15:16:28.728Z,3.23
2023-05-05T15:18:55.062Z,3.27
2023-05-05T15:21:21.359Z,3.00
2023-05-05T15:23:47.663Z,2.69
2023-05-05T15:26:13.949Z,2.53
2023-05-05T15:28:40.241Z,2.58
2023-05-05T15:31:06.562Z,2.61
2023-05-05T15:33:32.876Z,2.64
2023-05-05T15:35:59.189Z,2.52
2023-05-05T15:38:25.498Z,2.28
2023-05-05T15:40:51.794Z,2.26
2023-05-05T15:43:18.086Z,2.33
2023-05-05T15:45:44.399Z,2.46
2023-05-05T15:48:10.762Z,2.53
2023-05-05T15:50:37.068Z,2.62
2023-05-05T15:53:03.384Z,2.65
2023-05-05T15:55:29.692Z,2.34
2023-05-05T15:57:55.997Z,2.48
2023-05-05T16:00:22.387Z,2.27
2023-05-05T16:02:48.876Z,2.36
2023-05-05T16:05:15.239Z,2.35
2023-05-05T16:07:41.606Z,2.42
2023-05-05T16:10:07.895Z,2.63
2023-05-05T16:12:34.236Z,2.45
2023-05-05T16:15:00.593Z,2.37
2023-05-05T16:17:26.942Z,2.05
2023-05-05T16:19:53.242Z,2.22
2023-05-05T16:22:19.571Z,2.35
2023-05-05T16:24:45.874Z,2.20
2023-05-05T16:27:12.170Z,2.16
2023-05-05T16:29:38.515Z,2.07
2023-05-05T16:32:04.881Z,2.05
2023-05-05T16:34:31.316Z,2.01
2023-05-05T16:36:57.649Z,1.90
2023-05-05T16:39:23.943Z,1.91
2023-05-05T16:41:50.263Z,2.04
2023-05-05T16:44:16.577Z,1.98
2023-05-05T16:46:42.935Z,2.07
2023-05-05T16:49:09.234Z,2.20
2023-05-05T16:51:35.547Z,1.96
2023-05-05T16:54:01.842Z,2.08
2023-05-05T16:56:28.133Z,1.92
2023-05-05T16:58:54.447Z,1.94
2023-05-05T17:01:20.821Z,1.78
2023-05-05T17:03:47.174Z,1.54
2023-05-05T17:06:13.497Z,1.65
2023-05-05T17:08:39.790Z,1.68
2023-05-05T17:11:06.059Z,1.65
2023-05-05T17:13:32.429Z,1.68
2023-05-05T17:15:58.726Z,1.59
2023-05-05T17:18:25.066Z,1.47
2023-05-05T17:20:51.420Z,1.45
2023-05-05T17:23:17.766Z,1.54
2023-05-05T17:25:44.082Z,1.79
2023-05-05T17:28:10.405Z,1.63
2023-05-05T17:30:36.703Z,1.71
2023-05-05T17:33:03.039Z,1.71
2023-05-05T17:35:29.398Z,1.57
2023-05-05T17:37:55.713Z,1.63
2023-05-05T17:40:22.004Z,1.67
2023-05-05T17:42:48.328Z,1.48
2023-05-05T17:45:14.642Z,1.70
2023-05-05T17:47:40.964Z,1.59
2023-05-05T17:50:07.299Z,1.60
2023-05-05T17:52:33.615Z,1.35
2023-05-05T17:54:59.941Z,1.60
2023-05-05T17:57:26.600Z,1.71
2023-05-05T17:59:52.937Z,1.62
2023-05-05T18:02:19.326Z,1.61
2023-05-05T18:04:45.867Z,1.65
2023-05-05T18:07:12.194Z,1.68
2023-05-05T18:09:38.513Z,1.67
2023-05-05T18:12:04.858Z,1.50
2023-05-05T18:14:31.168Z,1.73
2023-05-05T18:16:57.469Z,1.70
2023-05-05T18:19:23.835Z,1.72
2023-05-05T18:21:50.149Z,1.56
2023-05-05T18:24:20.443Z,1.53
2023-05-05T18:26:47.031Z,1.67
2023-05-05T18:29:13.322Z,1.68
2023-05-05T18:31:39.677Z,1.79
2023-05-05T18:34:06.027Z,1.67
2023-05-05T18:36:32.332Z,1.76
2023-05-05T18:38:58.634Z,1.61
2023-05-05T18:41:24.975Z,1.72
2023-05-05T18:43:51.276Z,1.81
2023-05-05T18:46:17.613Z,1.76
2023-05-05T18:48:43.986Z,1.65
2023-05-05T18:51:10.287Z,1.62
2023-05-05T18:53:36.603Z,1.79
2023-05-05T18:56:02.921Z,1.70
2023-05-05T18:58:29.223Z,1.84
2023-05-05T19:00:55.547Z,1.94
2023-05-05T19:03:21.895Z,2.07
2023-05-05T19:05:48.220Z,1.82
2023-05-05T19:08:14.520Z,1.76
2023-05-05T19:10:40.820Z,1.65
2023-05-05T19:13:07.163Z,1.77
2023-05-05T19:15:33.475Z,1.65
2023-05-05T19:17:59.820Z,1.58
2023-05-05T19:20:26.138Z,1.64
2023-05-05T19:22:52.457Z,1.75
2023-05-05T19:25:18.838Z,1.72
2023-05-05T19:27:45.139Z,1.80
2023-05-05T19:30:11.438Z,1.69
2023-05-05T19:32:37.796Z,1.70
2023-05-05T19:35:04.100Z,1.88
2023-05-05T19:37:30.394Z,1.91
2023-05-05T19:39:56.715Z,1.77
2023-05-05T19:42:23.009Z,1.81
2023-05-05T19:44:49.330Z,1.92
2023-05-05T19:47:15.643Z,1.72
2023-05-05T19:49:41.952Z,1.99
2023-05-05T19:52:08.264Z,3.17
2023-05-05T19:54:34.585Z,2.03
2023-05-05T19:57:00.902Z,1.84
2023-05-05T19:59:27.204Z,1.80
2023-05-05T20:01:53.581Z,1.91
2023-05-05T20:04:20.188Z,1.91
2023-05-05T20:06:46.508Z,1.75
2023-05-05T20:09:12.838Z,1.94
2023-05-05T20:11:39.146Z,1.73
2023-05-05T20:14:05.547Z,1.80
2023-05-05T20:16:31.953Z,1.75
2023-05-05T20:18:58.381Z,1.58
2023-05-05T20:21:24.684Z,1.58
2023-05-05T20:23:51.022Z,1.54
2023-05-05T20:26:17.305Z,1.62
2023-05-05T20:28:45.279Z,1.47
2023-05-05T20:31:11.902Z,1.53
2023-05-05T20:33:38.225Z,1.77
2023-05-05T20:36:04.532Z,1.97
2023-05-05T20:38:30.855Z,2.13
2023-05-05T20:40:57.155Z,1.96
2023-05-05T20:43:23.456Z,1.63
2023-05-05T20:45:49.767Z,1.63
2023-05-05T20:48:16.080Z,1.82
2023-05-05T20:50:42.371Z,1.69
2023-05-05T20:53:08.691Z,1.96
2023-05-05T20:55:35.011Z,1.91
2023-05-05T20:58:01.329Z,1.99
2023-05-05T21:00:27.649Z,1.80
2023-05-05T21:02:54.029Z,1.78
2023-05-05T21:05:20.427Z,1.50
2023-05-05T21:07:46.754Z,1.34
2023-05-05T21:10:13.152Z,1.59
2023-05-05T21:12:39.495Z,1.56
2023-05-05T21:15:05.866Z,1.56
2023-05-05T21:17:32.214Z,1.52
2023-05-05T21:19:58.535Z,1.37
2023-05-05T21:22:24.843Z,1.56
2023-05-05T21:24:51.172Z,1.48
2023-05-05T21:27:17.488Z,1.54
2023-05-05T21:29:43.798Z,1.73
2023-05-05T21:32:10.113Z,1.79
2023-05-05T21:34:36.454Z,1.78
2023-05-05T21:37:02.814Z,1.56
2023-05-05T21:39:29.116Z,1.65
2023-05-05T21:41:55.409Z,1.88
2023-05-05T21:44:21.732Z,1.65
2023-05-05T21:46:48.094Z,1.76
2023-05-05T21:49:14.541Z,1.91
2023-05-05T21:51:40.866Z,1.69
2023-05-05T21:54:07.172Z,1.80
2023-05-05T21:56:33.467Z,1.77
2023-05-05T21:58:59.796Z,1.58
2023-05-05T22:01:26.095Z,1.70
2023-05-05T22:03:52.572Z,1.62
2023-05-05T22:06:19.017Z,1.76
2023-05-05T22:08:45.315Z,1.62
2023-05-05T22:11:11.598Z,1.70
2023-05-05T22:13:37.927Z,1.94
2023-05-05T22:16:04.265Z,1.65
2023-05-05T22:18:30.581Z,1.73
2023-05-05T22:20:56.901Z,1.57
2023-05-05T22:23:23.212Z,1.74
2023-05-05T22:25:49.508Z,2.04
2023-05-05T22:28:15.831Z,2.18
2023-05-05T22:30:42.138Z,2.16
2023-05-05T22:33:08.644Z,2.42
2023-05-05T22:35:35.037Z,2.44
2023-05-05T22:38:01.344Z,2.15
2023-05-05T22:40:27.639Z,1.76
2023-05-05T22:42:54.009Z,1.65
2023-05-05T22:45:20.304Z,1.95
2023-05-05T22:47:46.661Z,2.09
2023-05-05T22:50:12.995Z,2.09
2023-05-05T22:52:39.315Z,2.05
2023-05-05T22:55:05.628Z,2.02
2023-05-05T22:57:31.942Z,2.21
2023-05-05T22:59:58.230Z,2.11
2023-05-05T23:02:24.534Z,2.48
2023-05-05T23:04:50.895Z,2.43
2023-05-05T23:07:17.252Z,2.24
2023-05-05T23:09:43.537Z,2.63
2023-05-05T23:12:09.897Z,2.58
2023-05-05T23:14:36.196Z,2.54
2023-05-05T23:17:02.584Z,2.74
2023-05-05T23:19:29.029Z,2.59
2023-05-05T23:21:55.333Z,2.33
2023-05-05T23:24:21.648Z,2.30
2023-05-05T23:26:48.010Z,2.37
2023-05-05T23:29:14.372Z,2.60
2023-05-05T23:31:40.659Z,2.48
2023-05-05T23:34:06.965Z,2.83
2023-05-05T23:36:33.257Z,2.95
2023-05-05T23:38:59.553Z,2.89
2023-05-05T23:41:25.865Z,2.84
2023-05-05T23:43:52.161Z,2.69
2023-05-05T23:46:18.516Z,2.76
2023-05-05T23:48:44.881Z,2.78
2023-05-05T23:51:11.183Z,3.09
2023-05-05T23:53:37.477Z,3.39
2023-05-05T23:56:03.782Z,3.32
2023-05-05T23:58:30.096Z,3.19
